1959 Tropical Depression BEATRICE (1959015S14168)


IBTrACS version v04r00. Visit IBTrACS website for data access.
Please direct all questions to the IBTrACS Q and A forum

Storm track - Intensity - Wind Radii - Intensity Data - Source Data - All data

Summary Information

Storm ID 1959015S14168
Start Jan 14 23Z
Landfall Jan 18 21Z, Jan 21 09Z
Max Intensity 979 mb (Jan 18 23Z)
End Jan 21 23Z
ATCF IDs ,SH111959
Track status Best track data.

Storm track plot

Map of storm track

Intensity plots

Map of storm track

Radial wind information

No radial wind information for this storm


Position and Intensity Table

BASIN ISO_TIME_________ NATURE LAT LON WMO PRES BOM PRES
degrees north degrees east mb mb
SP 1959-01-14 23:00:00 NR -14.00 168.10
SP 1959-01-15 00:00:00 TS -13.99 168.01
SP 03:00:00 TS -13.89 167.75
SP 06:00:00 TS -13.80 167.50
SP 09:00:00 TS -13.74 167.25
SP 11:00:00 TS -13.71 167.09
SP 12:00:00 TS -13.70 167.01
SP 15:00:00 TS -13.67 166.76
SP 18:00:00 TS -13.70 166.52
SP 21:00:00 TS -13.80 166.28
SP 23:00:00 TS -13.92 166.10
SP 1959-01-16 00:00:00 TS -13.99 165.99
SP 03:00:00 TS -14.24 165.61
SP 05:00:00 TS -14.43 165.31 990 990
SP 06:00:00 TS -14.50 165.15
SP 09:00:00 TS -14.90 164.81
SP 11:00:00 TS -15.21 164.62
SP 12:00:00 TS -15.40 164.56
SP 15:00:00 TS -16.10 164.44
SP 18:00:00 TS -16.80 164.41
SP 21:00:00 TS -17.41 164.43
SP 23:00:00 TS -17.70 164.47 994 994
SP 1959-01-17 00:00:00 TS -17.74 164.45
SP 03:00:00 TS -17.48 164.32
SP 05:00:00 TS -16.78 164.05 990
SP 06:00:00 TS -16.54 163.99
SP 09:00:00 TS -15.88 163.84
SP 11:00:00 TS -15.43 163.80
SP 12:00:00 TS -15.19 163.80
SP 15:00:00 TS -14.34 163.90
SP 18:00:00 TS -13.70 164.08
SP 21:00:00 TS -13.56 164.28
SP 23:00:00 TS -13.76 164.42 981
SP 1959-01-18 00:00:00 TS -13.95 164.49
SP 02:00:00 TS -14.48 164.62 981
SP 03:00:00 TS -14.82 164.68
SP 05:00:00 TS -15.59 164.82 981
SP 06:00:00 TS -16.00 164.90
SP 09:00:00 TS -17.20 165.13
SP 11:00:00 TS -18.01 165.30 976
SP 12:00:00 TS -18.40 165.42
SP 15:00:00 TS -19.91 165.88
SP 18:00:00 TS -21.05 166.23
SP 21:00:00 TS -21.92 166.42
SP 23:00:00 TS -22.37 166.39 979 979
SP 1959-01-19 00:00:00 TS -22.58 166.30 979
SP 03:00:00 TS -23.10 165.81 979
SP 05:00:00 TS -23.40 165.30 979 979
SP 06:00:00 TS -23.57 164.92 979
SP 09:00:00 TS -24.04 163.76 980
SP 11:00:00 TS -24.44 162.71 982 982
SP 12:00:00 TS -24.80 161.90
SP 15:00:00 TS -25.36 160.57
SP 18:00:00 TS -25.90 159.31
SP 21:00:00 TS -26.36 158.21
SP 23:00:00 TS -26.60 157.62 982
SP 1959-01-20 00:00:00 TS -26.70 157.39
SP 03:00:00 TS -26.89 156.94
SP 06:00:00 TS -27.00 156.67
SP 09:00:00 TS -27.13 156.37
SP 11:00:00 TS -27.23 156.15 980
SP 12:00:00 TS -27.29 156.02
SP 15:00:00 TS -27.53 155.59
SP 18:00:00 TS -27.78 155.11
SP 21:00:00 TS -28.01 154.62
SP 23:00:00 TS -28.13 154.28 980
SP 1959-01-21 00:00:00 TS -27.97 154.55
SP 03:00:00 TS -28.03 154.26
SP 06:00:00 TS -28.17 153.81
SP 09:00:00 TS -28.38 153.19
SP 11:00:00 TS -28.51 152.67 986 986
SP 12:00:00 TS -28.56 152.43 987
SP 15:00:00 TS -28.64 151.70 990
SP 18:00:00 TS -28.65 150.98 993
SP 21:00:00 NR -28.61 150.24 996
SP 23:00:00 NR -28.55 149.70 999 999

Source Information

Agency Information
USA bsh111959.txt
TOKYO
CMA
HKO
NEWDELHI
REUNION
BOM IDCKMSTM0S.csv:Line=2780:BEATRICE
NADI
WELLINGTON
DS824 s_hem.dat:758:11P
TD9636 cons_worldwide_trop_cyclone_18710101-19891231-006:Line=5347
TD9635
NEUMANN
MLC

All available IBTrACS Data

SEASON BASIN SUBBASIN ISO_TIME_________ NATURE LAT LON WMO PRES WMO AGENCY DIST2LAND LANDFALL IFLAG USA AGENCY USA ATCF_ID USA LAT USA LON USA SSHS BOM LAT BOM LON BOM PRES DS824 LAT DS824 LON DS824 STAGE TD9636 LAT TD9636 LON TD9636 STAGE STORM SPEED STORM DIR
Year degrees north degrees east mb km km degrees north degrees east 1 degrees north degrees east mb degrees north degrees east degrees north degrees east kts degrees
1959 SP MM 1959-01-14 23:00:00 NR -14.00 168.10 155 148 __________O___ -1 -14.00 168.10 1 5 280
1959 SP MM 1959-01-15 00:00:00 TS -13.99 168.01 148 141 O________OP___ jtwc_sh SH111959 -14.00 168.00 -1 -14.00 168.00 TC -13.97 168.01 1 5 288
1959 SP MM 03:00:00 TS -13.89 167.75 144 139 P________PP___ SH111959 -13.89 167.75 -1 -13.89 167.75 TC -13.88 167.76 1 5 291
1959 SP MM 06:00:00 TS -13.80 167.50 139 125 O________OP___ jtwc_sh SH111959 -13.80 167.50 -1 -13.80 167.50 TC -13.80 167.51 1 5 288
1959 SP MM 09:00:00 TS -13.74 167.25 135 124 P________PP___ SH111959 -13.73 167.25 -1 -13.73 167.25 TC -13.74 167.26 1 5 283
1959 SP MM 11:00:00 TS -13.71 167.09 124 119 P________PO___ SH111959 -13.71 167.08 -1 -13.71 167.08 TC -13.70 167.10 1 5 280
1959 SP MM 12:00:00 TS -13.70 167.01 119 114 O________OP___ jtwc_sh SH111959 -13.70 167.00 -1 -13.70 167.00 TC -13.69 167.02 1 5 277
1959 SP MM 15:00:00 TS -13.67 166.76 114 111 P________PP___ SH111959 -13.67 166.75 -1 -13.67 166.75 TC -13.66 166.79 1 5 270
1959 SP MM 18:00:00 TS -13.70 166.52 112 103 O________OP___ jtwc_sh SH111959 -13.70 166.50 -1 -13.70 166.50 TC -13.69 166.55 1 5 254
1959 SP MM 21:00:00 TS -13.80 166.28 105 99 P________PP___ SH111959 -13.80 166.27 -1 -13.80 166.27 TC -13.78 166.29 1 6 241
1959 SP MM 23:00:00 TS -13.92 166.10 104 101 P________PO___ SH111959 -13.92 166.10 -1 -13.92 166.10 TC -13.90 166.10 2 7 235
1959 SP MM 1959-01-16 00:00:00 TS -13.99 165.99 101 101 O________OP___ jtwc_sh SH111959 -14.00 166.00 -1 -14.00 166.00 TC -13.96 165.98 2 9 236
1959 SP MM 03:00:00 TS -14.24 165.61 117 111 P________PP___ SH111959 -14.26 165.61 -1 -14.26 165.61 TC -14.22 165.61 2 10 237
1959 SP MM 05:00:00 TS -14.43 165.31 990 bom 136 133 P_____O__PP___ SH111959 -14.48 165.33 -1 -14.00 165.00 990 -14.48 165.33 TC -14.44 165.35 2 10 239
1959 SP MM 06:00:00 TS -14.50 165.15 143 143 O_____P__OP___ jtwc_sh SH111959 -14.60 165.20 -1 -14.23 164.95 -14.60 165.20 TC -14.56 165.22 2 10 226
1959 SP MM 09:00:00 TS -14.90 164.81 183 183 P_____P__PP___ SH111959 -14.98 164.85 -1 -14.92 164.82 -14.98 164.85 TC -14.98 164.88 2 11 216
1959 SP MM 11:00:00 TS -15.21 164.62 209 209 P_____P__PO___ SH111959 -15.31 164.67 -1 -15.38 164.74 -15.31 164.67 TC -15.30 164.70 2 11 205
1959 SP MM 12:00:00 TS -15.40 164.56 214 214 O_____P__OP___ jtwc_sh SH111959 -15.50 164.60 -1 -15.60 164.70 -15.50 164.60 TC -15.52 164.64 2 14 191
1959 SP MM 15:00:00 TS -16.10 164.44 248 248 P_____P__PP___ SH111959 -16.27 164.51 -1 -16.25 164.60 -16.27 164.51 TC -16.28 164.53 2 14 186
1959 SP MM 18:00:00 TS -16.80 164.41 282 282 O_____P__OP___ jtwc_sh SH111959 -17.00 164.50 -1 -16.87 164.53 -17.00 164.50 TC -17.01 164.48 2 13 0
1959 SP MM 21:00:00 TS -17.41 164.43 314 282 P_____P__PP___ SH111959 -17.49 164.47 -1 -17.45 164.49 -17.49 164.47 TC -17.54 164.44 2 11 177
1959 SP MM 23:00:00 TS -17.70 164.47 994 bom 282 282 P_____O__PO___ SH111959 -17.62 164.43 -1 -17.80 164.50 994 -17.62 164.43 TC -17.70 164.40 1 7 177
1959 SP MM 1959-01-17 00:00:00 TS -17.74 164.45 282 270 O_____P__OP___ jtwc_sh SH111959 -17.60 164.40 -1 -17.97 164.51 -17.60 164.40 TC -17.66 164.34 1 4 328
1959 SP MM 03:00:00 TS -17.48 164.32 302 302 P_____P__PP___ SH111959 -17.19 164.21 -1 -18.43 164.58 -17.19 164.21 TC -17.27 164.16 1 13 338
1959 SP MM 05:00:00 TS -16.78 164.05 990 bom 309 308 P_____P__PP___ SH111959 -16.74 164.06 -1 -18.70 164.65 -16.74 164.06 TC -16.86 164.03 1 20 341
1959 SP MM 06:00:00 TS -16.54 163.99 304 296 O_____P__OP___ jtwc_sh SH111959 -16.50 164.00 -1 -18.83 164.69 -16.50 164.00 TC -16.62 163.97 1 14 348
1959 SP MM 09:00:00 TS -15.88 163.84 305 300 P_____P__PP___ SH111959 -15.89 163.85 -1 -19.19 164.84 -15.89 163.85 TC -15.87 163.84 1 14 350
1959 SP MM 11:00:00 TS -15.43 163.80 297 293 P_____P__PO___ SH111959 -15.44 163.80 -1 -19.41 164.96 -15.44 163.80 TC -15.40 163.80 2 14 357
1959 SP MM 12:00:00 TS -15.19 163.80 293 280 O_____P__OP___ jtwc_sh SH111959 -15.20 163.80 -1 -19.51 165.02 -15.20 163.80 TC -15.16 163.81 2 17 5
1959 SP MM 15:00:00 TS -14.34 163.90 285 280 P_____P__PP___ SH111959 -14.27 163.91 -1 -19.79 165.22 -14.27 163.91 TC -14.46 163.89 2 15 10
1959 SP MM 18:00:00 TS -13.70 164.08 286 278 O_____P__OP___ jtwc_sh SH111959 -13.60 164.10 -1 -20.04 165.43 -13.60 164.10 TC -13.89 164.05 2 9 25
1959 SP MM 21:00:00 TS -13.56 164.28 272 257 P_____P__PP___ SH111959 -13.52 164.29 -1 -20.28 165.65 -13.52 164.29 TC -13.63 164.25 2 4 100
1959 SP MM 23:00:00 TS -13.76 164.42 981 bom 252 237 P_____P__PO___ SH111959 -13.78 164.43 -1 -20.42 165.79 -13.78 164.43 TC -13.70 164.40 2 9 153
1959 SP MM 1959-01-18 00:00:00 TS -13.95 164.49 233 209 O_____P__OP___ jtwc_sh SH111959 -14.00 164.50 -1 -20.49 165.86 -14.00 164.50 TC -13.86 164.46 2 15 165
1959 SP MM 02:00:00 TS -14.48 164.62 981 bom 207 193 P_____P__PP___ SH111959 -14.55 164.63 -1 -20.63 165.99 -14.55 164.63 TC -14.34 164.59 2 18 168
1959 SP MM 03:00:00 TS -14.82 164.68 193 188 P_____P__PP___ SH111959 -14.91 164.69 -1 -20.70 166.05 -14.91 164.69 TC -14.65 164.66 2 23 170
1959 SP MM 05:00:00 TS -15.59 164.82 981 bom 194 187 P_____P__PP___ SH111959 -15.69 164.83 -1 -20.83 166.17 -15.69 164.83 TC -15.39 164.81 2 24 170
1959 SP MM 06:00:00 TS -16.00 164.90 194 194 O_____P__OP___ jtwc_sh SH111959 -16.10 164.90 -1 -20.90 166.23 -16.10 164.90 TC -15.80 164.89 2 25 170
1959 SP MM 09:00:00 TS -17.20 165.13 246 242 P_____P__PP___ SH111959 -17.23 165.13 -1 -21.11 166.37 -17.23 165.13 TC -17.12 165.13 2 25 169
1959 SP MM 11:00:00 TS -18.01 165.30 976 bom 270 242 P_____P__PO___ SH111959 -18.01 165.30 -1 -21.25 166.45 -18.01 165.30 TC -18.00 165.30 2 25 167
1959 SP MM 12:00:00 TS -18.40 165.42 232 133 O_____P__OP___ jtwc_sh SH111959 -18.40 165.40 -1 -21.32 166.48 -18.40 165.40 TC -18.39 165.45 2 30 164
1959 SP MM 15:00:00 TS -19.91 165.88 124 56 P_____P__PP___ SH111959 -19.57 165.77 -1 -21.56 166.54 -19.57 165.77 TC -19.58 165.92 2 28 164
1959 SP MM 18:00:00 TS -21.05 166.23 56 0 O_____P__OP___ jtwc_sh SH111959 -20.70 166.10 -1 -21.81 166.54 -20.70 166.10 TC -20.73 166.33 2 21 166
1959 SP MM 21:00:00 TS -21.92 166.42 0 0 P_____P__PP___ SH111959 -21.79 166.39 -1 -22.09 166.48 -21.79 166.39 TC -21.79 166.50 2 16 174
1959 SP MM 23:00:00 TS -22.37 166.39 979 bom 11 11 P_____O__PO___ SH111959 -22.43 166.39 -1 -22.30 166.40 979 -22.43 166.39 TC -22.40 166.40 4 13 190
1959 SP MM 1959-01-19 00:00:00 TS -22.58 166.30 35 35 O_____P__OP___ jtwc_sh SH111959 -22.70 166.30 -1 -22.43 166.36 979 -22.70 166.30 TC -22.66 166.24 4 14 216
1959 SP MM 03:00:00 TS -23.10 165.81 108 108 P_____P__PP___ SH111959 -23.32 165.61 -1 -22.80 166.19 979 -23.32 165.61 TC -23.32 165.48 4 15 228
1959 SP MM 05:00:00 TS -23.40 165.30 979 bom 166 166 P_____O__PP___ SH111959 -23.65 164.90 -1 -23.00 166.00 979 -23.65 164.90 TC -23.68 164.79 4 19 240
1959 SP MM 06:00:00 TS -23.57 164.92 207 207 O_____P__OP___ jtwc_sh SH111959 -23.80 164.50 -1 -23.07 165.87 979 -23.80 164.50 TC -23.85 164.40 4 23 246
1959 SP MM 09:00:00 TS -24.04 163.76 309 309 P_____P__PP___ SH111959 -24.30 163.26 -1 -23.22 165.38 980 -24.30 163.26 TC -24.30 163.15 4 26 247
1959 SP MM 11:00:00 TS -24.44 162.71 982 bom 403 403 P_____O__PO___ SH111959 -24.63 162.35 -1 -23.30 165.00 982 -24.63 162.35 TC -24.60 162.30 2 37 246
1959 SP MM 12:00:00 TS -24.80 161.90 488 488 O_____P__OP___ jtwc_sh SH111959 -24.80 161.90 -1 -23.37 164.83 -24.80 161.90 TC -24.79 161.89 2 32 245
1959 SP MM 15:00:00 TS -25.36 160.57 626 608 P_____P__PP___ SH111959 -25.37 160.55 -1 -23.61 164.30 -25.37 160.55 TC -25.36 160.61 2 26 245
1959 SP EA 18:00:00 TS -25.90 159.31 600 510 O_____P__OP___ jtwc_sh SH111959 -25.90 159.30 -1 -23.91 163.76 -25.90 159.30 TC -25.90 159.34 2 23 245
1959 SP EA 21:00:00 TS -26.36 158.21 496 442 P_____P__PP___ SH111959 -26.36 158.21 -1 -24.25 163.19 -26.36 158.21 TC -26.36 158.21 2 20 245
1959 SP EA 23:00:00 TS -26.60 157.62 982 bom 433 410 P_____P__PO___ SH111959 -26.60 157.63 -1 -24.49 162.80 -26.60 157.63 TC -26.60 157.60 2 16 245
1959 SP EA 1959-01-20 00:00:00 TS -26.70 157.39 410 364 O_____P__OP___ jtwc_sh SH111959 -26.70 157.40 -1 -24.62 162.61 -26.70 157.40 TC -26.69 157.38 2 10 245
1959 SP EA 03:00:00 TS -26.89 156.94 355 333 P_____P__PP___ SH111959 -26.89 156.96 -1 -25.02 161.99 -26.89 156.96 TC -26.89 156.89 2 7 245
1959 SP EA 06:00:00 TS -27.00 156.67 333 301 O_____P__OP___ jtwc_sh SH111959 -27.00 156.70 -1 -25.44 161.36 -27.00 156.70 TC -27.01 156.60 2 6 244
1959 SP EA 09:00:00 TS -27.13 156.37 301 279 P_____P__PP___ SH111959 -27.13 156.36 -1 -25.87 160.69 -27.13 156.36 TC -27.12 156.37 2 6 244
1959 SP EA 11:00:00 TS -27.23 156.15 980 bom 279 256 P_____P__PO___ SH111959 -27.24 156.13 -1 -26.16 160.23 -27.24 156.13 TC -27.20 156.20 1 7 242
1959 SP EA 12:00:00 TS -27.29 156.02 256 211 O_____P__OP___ jtwc_sh SH111959 -27.30 156.00 -1 -26.30 159.99 -27.30 156.00 TC -27.27 156.06 1 9 239
1959 SP EA 15:00:00 TS -27.53 155.59 211 153 P_____P__PP___ SH111959 -27.54 155.57 -1 -26.72 159.27 -27.54 155.57 TC -27.50 155.62 1 9 239
1959 SP EA 18:00:00 TS -27.78 155.11 153 100 O_____P__OP___ jtwc_sh SH111959 -27.80 155.10 -1 -27.12 158.51 -27.80 155.10 TC -27.74 155.14 1 10 241
1959 SP EA 21:00:00 TS -28.01 154.62 100 69 P_____P__PP___ SH111959 -28.02 154.61 -1 -27.49 157.72 -28.02 154.61 TC -27.97 154.64 1 10 245
1959 SP EA 23:00:00 TS -28.13 154.28 980 bom 69 69 P_____P__PO___ SH111959 -28.15 154.27 -1 -27.72 157.18 -28.15 154.27 TC -28.10 154.30 2 1 300
1959 SP EA 1959-01-21 00:00:00 TS -27.97 154.55 100 72 O_____P__OP___ jtwc_sh SH111959 -28.20 154.10 -1 -27.83 156.90 -28.20 154.10 TC -28.15 154.14 2 2 0
1959 SP EA 03:00:00 TS -28.03 154.26 72 19 P_____P__PP___ SH111959 -28.32 153.61 -1 -28.12 156.04 -28.32 153.61 TC -28.29 153.63 2 7 253
1959 SP EA 06:00:00 TS -28.17 153.81 19 0 O_____P__OP___ jtwc_sh SH111959 -28.40 153.10 -1 -28.35 155.16 -28.40 153.10 TC -28.39 153.11 2 10 250
1959 SP EA 09:00:00 TS -28.38 153.19 0 0 P_____P__PP___ SH111959 -28.46 152.56 -1 -28.53 154.23 -28.46 152.56 TC -28.46 152.57 2 13 252
1959 SP EA 11:00:00 TS -28.51 152.67 986 bom 0 0 P_____O__PO___ SH111959 -28.49 152.19 -1 -28.60 153.60 986 -28.49 152.19 TC -28.50 152.20 2 14 255
1959 SP EA 12:00:00 TS -28.56 152.43 0 0 O_____P__OP___ jtwc_sh SH111959 -28.50 152.00 -1 -28.62 153.28 987 -28.50 152.00 TC -28.52 152.01 2 13 261
1959 SP EA 15:00:00 TS -28.64 151.70 0 0 P_____P__PP___ SH111959 -28.55 151.41 -1 -28.65 152.30 990 -28.55 151.41 TC -28.55 151.42 2 13 266
1959 SP EA 18:00:00 TS -28.65 150.98 0 0 O_____P__OP___ jtwc_sh SH111959 -28.60 150.80 -1 -28.62 151.29 993 -28.60 150.80 TC -28.58 150.82 2 13 271
1959 SP EA 21:00:00 NR -28.61 150.24 0 0 ______P___P___ SH111959 -1 -28.56 150.28 996 TC -28.59 150.21 2 14 275
1959 SP EA 23:00:00 NR -28.55 149.70 999 bom 0 ______O___O___ SH111959 -1 -28.50 149.60 999 TC -28.60 149.80 2 14 277